Time;durP1;ratioP1;P1;durP2;ratioP2;P2;SDS_P1;SDS_P2;PMS_P1;PMS_P2;Temp;Humidity;BMP_temperature;BMP_pressure;BME280_temperature;BME280_humidity;BME280_pressure;Samples;Min_cycle;Max_cycle;Signal;HPM_P1;HPM_P2
2022/07/29 00:01:30;;;;;;;3.93;1.27;;;;;;;-145.18;100.00;46543.19;5010717;28;20026;-74
2022/07/29 00:03:55;;;;;;;4.13;1.33;;;;;;;-145.18;100.00;46545.16;5011333;28;20052;-74
2022/07/29 00:06:20;;;;;;;8.23;1.60;;;;;;;-145.18;100.00;46547.09;5010645;28;20116;-74
2022/07/29 00:08:46;;;;;;;4.63;1.27;;;;;;;-145.18;100.00;46552.97;5011556;28;20041;-74
2022/07/29 00:11:11;;;;;;;4.73;1.27;;;;;;;-145.18;100.00;46547.09;5011030;28;20487;-73
2022/07/29 00:13:37;;;;;;;3.43;1.10;;;;;;;-145.18;100.00;46543.19;5011115;28;20038;-73
2022/07/29 00:16:03;;;;;;;3.67;1.50;;;;;;;-145.18;100.00;46552.97;5011082;28;20030;-72
2022/07/29 00:18:28;;;;;;;3.03;1.27;;;;;;;-145.18;100.00;46541.25;5010951;28;20073;-74
2022/07/29 00:20:54;;;;;;;3.07;1.10;;;;;;;-145.18;100.00;46547.09;5011107;28;20034;-74
2022/07/29 00:23:19;;;;;;;9.07;2.43;;;;;;;-145.18;100.00;46539.28;5010719;28;20406;-71
2022/07/29 00:25:44;;;;;;;3.80;0.87;;;;;;;-145.18;100.00;46554.91;5011052;28;20402;-72
2022/07/29 00:28:10;;;;;;;3.17;1.03;;;;;;;-145.18;100.00;46541.25;5010145;28;20668;-72
2022/07/29 00:30:35;;;;;;;4.07;1.13;;;;;;;-145.18;100.00;46547.09;5010898;28;20042;-72
2022/07/29 00:33:00;;;;;;;4.80;1.23;;;;;;;-145.18;100.00;46543.19;4993424;28;20044;-72
2022/07/29 00:35:44;;;;;;;4.53;1.20;;;;;;;-145.18;100.00;46551.00;5010820;28;20037;-72
2022/07/29 00:38:15;;;;;;;3.83;1.30;;;;;;;-145.18;100.00;46543.19;5010569;28;20045;-74
2022/07/29 00:40:42;;;;;;;9.33;1.30;;;;;;;-145.18;100.00;46549.06;5011107;28;20383;-74
2022/07/29 00:43:07;;;;;;;2.33;1.03;;;;;;;-145.18;100.00;46543.19;5010814;28;20030;-72
2022/07/29 00:45:33;;;;;;;1.37;0.87;;;;;;;-145.18;100.00;46543.19;5009811;28;20030;-72
2022/07/29 00:47:58;;;;;;;4.47;1.20;;;;;;;-145.18;100.00;46537.34;4992600;28;20042;-71
2022/07/29 00:50:24;;;;;;;3.90;1.00;;;;;;;-145.18;100.00;46543.19;5010749;28;20116;-73
2022/07/29 00:52:51;;;;;;;3.23;1.30;;;;;;;-145.18;100.00;46543.19;5010261;28;20034;-74
2022/07/29 00:55:17;;;;;;;2.30;1.23;;;;;;;-145.18;100.00;46547.09;4993423;28;20037;-74
2022/07/29 00:57:43;;;;;;;5.40;1.10;;;;;;;-145.18;100.00;46545.16;5010248;28;20087;-73
2022/07/29 01:00:12;;;;;;;3.83;1.50;;;;;;;-145.18;100.00;46545.16;5010931;28;20038;-74
2022/07/29 01:02:37;;;;;;;9.20;1.40;;;;;;;-145.18;100.00;46539.28;4992570;28;20417;-75
2022/07/29 01:05:05;;;;;;;3.63;1.30;;;;;;;-145.18;100.00;46541.25;5010701;28;20034;-74
2022/07/29 01:07:33;;;;;;;8.90;1.70;;;;;;;-145.18;100.00;46539.28;5009863;28;20045;-73
2022/07/29 01:10:00;;;;;;;3.97;1.50;;;;;;;-145.18;100.00;46539.28;5010946;28;20033;-74
2022/07/29 01:12:28;;;;;;;3.13;1.30;;;;;;;-145.18;100.00;46547.09;4991759;28;20092;-74
2022/07/29 01:14:55;;;;;;;4.60;1.40;;;;;;;-145.18;100.00;46543.19;5009922;28;20044;-75
2022/07/29 01:17:26;;;;;;;3.97;1.17;;;;;;;-145.18;100.00;46535.38;5009268;28;20469;-74
2022/07/29 01:20:11;;;;;;;3.53;1.50;;;;;;;-145.18;100.00;46547.09;5010580;28;20042;-74
2022/07/29 01:23:08;;;;;;;6.33;1.33;;;;;;;-145.18;100.00;46537.34;5009131;28;20040;-75
2022/07/29 01:25:54;;;;;;;4.87;1.27;;;;;;;-145.18;100.00;46539.28;5010094;28;20045;-74
2022/07/29 01:28:57;;;;;;;4.43;1.17;;;;;;;-145.18;100.00;46535.38;5008537;28;20505;-72
2022/07/29 01:31:31;;;;;;;6.90;1.53;;;;;;;-145.18;100.00;46535.38;4990378;28;20105;-74
2022/07/29 01:34:05;;;;;;;3.87;1.30;;;;;;;-145.18;100.00;46539.28;4990653;28;20064;-74
2022/07/29 01:37:00;;;;;;;3.60;1.23;;;;;;;-145.18;100.00;46539.28;4996815;28;20037;-71
2022/07/29 01:39:31;;;;;;;2.83;1.17;;;;;;;-145.18;100.00;46535.38;5012576;28;20064;-72
2022/07/29 01:42:05;;;;;;;4.23;1.63;;;;;;;-145.18;100.00;46535.38;5013433;28;20030;-74
2022/07/29 01:44:38;;;;;;;7.20;1.70;;;;;;;-145.18;100.00;46547.09;5012840;28;20033;-74
2022/07/29 01:47:17;;;;;;;6.47;1.60;;;;;;;-145.18;100.00;46560.78;4994899;28;20038;-75
2022/07/29 01:49:49;;;;;;;3.20;1.53;;;;;;;-145.18;100.00;46611.56;5013182;28;20459;-74
2022/07/29 01:52:21;;;;;;;4.13;1.43;;;;;;;-145.18;100.00;46625.22;5011853;28;20041;-74
2022/07/29 01:54:55;;;;;;;2.27;1.40;;;;;;;-145.18;100.00;46631.09;5012826;28;20561;-74
2022/07/29 01:57:27;;;;;;;5.07;1.47;;;;;;;-145.18;100.00;46640.88;5013262;28;20498;-73
2022/07/29 01:59:53;;;;;;;7.70;1.67;;;;;;;-145.18;100.00;46660.41;5013612;28;20022;-75
2022/07/29 02:02:20;;;;;;;6.27;1.37;;;;;;;-145.18;100.00;46640.88;5260452;23;20053;-72
2022/07/29 02:04:48;;;;;;;2.40;1.50;;;;;;;-145.18;100.00;46650.63;5005091;28;20485;-72
2022/07/29 02:07:19;;;;;;;6.63;1.93;;;;;;;-145.18;100.00;46656.50;5012099;28;20482;-72
2022/07/29 02:09:47;;;;;;;4.43;1.10;;;;;;;-145.18;100.00;46660.41;5012943;28;20040;-72
2022/07/29 02:12:14;;;;;;;3.90;1.40;;;;;;;-145.18;100.00;46666.25;5011883;28;20125;-72
2022/07/29 02:14:47;;;;;;;6.03;1.90;;;;;;;-145.18;100.00;46666.25;5012117;28;20037;-71
2022/07/29 02:17:13;;;;;;;3.30;1.30;;;;;;;-145.18;100.00;46664.31;5011978;28;20101;-72
2022/07/29 02:19:41;;;;;;;4.10;1.53;;;;;;;-145.18;100.00;46658.44;5013030;28;20117;-72
2022/07/29 02:22:07;;;;;;;4.33;1.50;;;;;;;-145.18;100.00;46664.31;5012079;28;20038;-72
2022/07/29 02:24:35;;;;;;;4.60;1.70;;;;;;;-145.18;100.00;46666.25;5012199;28;20045;-71
2022/07/29 02:27:02;;;;;;;6.60;1.23;;;;;;;-145.18;100.00;46666.25;5011985;28;20094;-72
2022/07/29 02:29:29;;;;;;;2.03;1.20;;;;;;;-145.18;100.00;46664.31;5013425;28;20034;-72
2022/07/29 02:31:59;;;;;;;4.23;1.57;;;;;;;-145.18;100.00;46662.34;5011374;28;20034;-71
2022/07/29 02:34:25;;;;;;;3.87;2.03;;;;;;;-145.18;100.00;46666.25;5013183;28;20034;-72
2022/07/29 02:36:52;;;;;;;6.43;1.70;;;;;;;-145.18;100.00;46668.22;5012404;28;20041;-74
2022/07/29 02:39:18;;;;;;;3.87;1.60;;;;;;;-145.18;100.00;46668.22;5012666;28;20030;-74
2022/07/29 02:41:47;;;;;;;7.73;1.60;;;;;;;-145.18;100.00;46668.22;5012618;28;20037;-74
2022/07/29 02:44:15;;;;;;;6.43;1.43;;;;;;;-145.18;100.00;46674.06;5012681;28;20034;-74
2022/07/29 02:46:49;;;;;;;3.77;1.47;;;;;;;-145.18;100.00;46672.13;5012127;28;20041;-74
2022/07/29 02:49:20;;;;;;;6.77;1.67;;;;;;;-145.18;100.00;46672.13;5011658;28;20081;-74
2022/07/29 02:51:52;;;;;;;4.73;1.30;;;;;;;-145.18;100.00;46674.06;5012060;28;20064;-73
2022/07/29 02:54:29;;;;;;;3.00;1.63;;;;;;;-145.18;100.00;46666.25;5012328;28;20030;-74
2022/07/29 02:56:58;;;;;;;5.90;1.93;;;;;;;-145.18;100.00;46672.13;5011509;28;20026;-74
2022/07/29 02:59:27;;;;;;;3.57;1.70;;;;;;;-145.18;100.00;46672.13;5012387;28;20033;-74
2022/07/29 03:01:55;;;;;;;5.17;1.70;;;;;;;-145.18;100.00;46672.13;5011273;28;20030;-74
2022/07/29 03:04:24;;;;;;;4.37;1.83;;;;;;;-145.18;100.00;46668.22;5012237;28;20084;-74
2022/07/29 03:06:52;;;;;;;8.33;2.20;;;;;;;-145.18;100.00;46668.22;5011483;28;20063;-74
2022/07/29 03:09:18;;;;;;;7.17;1.80;;;;;;;-145.18;100.00;46668.22;4994492;28;20042;-74
2022/07/29 03:11:44;;;;;;;5.93;1.67;;;;;;;-145.18;100.00;46664.31;5011576;28;20057;-72
2022/07/29 03:14:10;;;;;;;3.87;1.53;;;;;;;-145.18;100.00;46668.22;5011594;28;20438;-72
2022/07/29 03:16:36;;;;;;;6.97;1.53;;;;;;;-145.18;100.00;46670.16;5011666;28;20034;-72
2022/07/29 03:19:03;;;;;;;3.03;1.77;;;;;;;-145.18;100.00;46672.13;5011262;28;20061;-72
2022/07/29 03:21:29;;;;;;;2.43;1.50;;;;;;;-145.18;100.00;46668.22;5011883;28;20076;-71
2022/07/29 03:23:54;;;;;;;6.43;1.70;;;;;;;-145.18;100.00;46668.22;5010755;28;20062;-72
2022/07/29 03:26:19;;;;;;;5.53;1.83;;;;;;;-145.18;100.00;46668.22;5011798;28;20026;-72
2022/07/29 03:28:45;;;;;;;3.90;1.80;;;;;;;-145.18;100.00;46674.06;5010987;28;20038;-72
2022/07/29 03:31:10;;;;;;;4.70;1.93;;;;;;;-145.18;100.00;46670.16;5011792;28;20045;-72
2022/07/29 03:33:35;;;;;;;5.80;1.87;;;;;;;-145.18;100.00;46668.22;5010913;28;20041;-72
2022/07/29 03:36:02;;;;;;;5.90;1.70;;;;;;;-145.18;100.00;46660.41;5011618;28;20092;-72
2022/07/29 03:38:30;;;;;;;8.10;1.90;;;;;;;-145.18;100.00;46664.31;5011253;28;20113;-71
2022/07/29 03:41:03;;;;;;;4.97;1.87;;;;;;;-145.18;100.00;46664.31;5011484;28;20149;-72
2022/07/29 03:43:32;;;;;;;5.83;1.83;;;;;;;-145.18;100.00;46658.44;5011282;28;20029;-72
2022/07/29 03:46:00;;;;;;;3.93;2.17;;;;;;;-145.18;100.00;46664.31;5010947;28;20030;-72
2022/07/29 03:48:26;;;;;;;8.27;1.93;;;;;;;-145.18;100.00;46664.31;5011270;28;20116;-72
2022/07/29 03:50:52;;;;;;;4.50;1.80;;;;;;;-145.18;100.00;46664.31;5010992;28;20033;-72
2022/07/29 03:53:17;;;;;;;5.77;1.87;;;;;;;-145.18;100.00;46662.34;5011101;28;20518;-72
2022/07/29 03:55:46;;;;;;;6.40;2.63;;;;;;;-145.18;100.00;46656.50;5011049;28;20501;-72
2022/07/29 03:58:14;;;;;;;8.00;1.87;;;;;;;-145.18;100.00;46656.50;5010444;28;20045;-72
2022/07/29 04:00:40;;;;;;;5.70;1.93;;;;;;;-145.18;100.00;46664.31;5010976;28;20034;-72
2022/07/29 04:03:06;;;;;;;4.53;1.97;;;;;;;-145.18;100.00;46662.34;5003579;28;20065;-73
2022/07/29 04:05:31;;;;;;;6.60;2.17;;;;;;;-145.18;100.00;46660.41;5001657;28;20390;-72
2022/07/29 04:07:56;;;;;;;3.30;2.03;;;;;;;-145.18;100.00;46660.41;4999961;28;20050;-72
2022/07/29 04:10:25;;;;;;;7.07;2.10;;;;;;;-145.18;100.00;46654.53;5002537;28;20030;-73
2022/07/29 04:12:50;;;;;;;7.53;2.10;;;;;;;-145.18;100.00;46656.50;5005481;28;20038;-73
2022/07/29 04:15:16;;;;;;;7.03;2.33;;;;;;;-145.18;100.00;46660.41;5006923;28;20080;-73
2022/07/29 04:17:41;;;;;;;5.70;2.20;;;;;;;-145.18;100.00;46660.41;5005700;28;20034;-73
2022/07/29 04:20:07;;;;;;;8.70;1.93;;;;;;;-145.18;100.00;46652.59;5005223;28;20131;-73
2022/07/29 04:22:32;;;;;;;4.40;1.77;;;;;;;-145.18;100.00;46662.34;5010097;28;20033;-73
2022/07/29 04:24:58;;;;;;;6.40;2.40;;;;;;;-145.18;100.00;46660.41;5003687;28;20037;-73
2022/07/29 04:27:23;;;;;;;3.47;2.40;;;;;;;-145.18;100.00;46662.34;4981943;28;20050;-73
2022/07/29 04:29:49;;;;;;;3.77;2.10;;;;;;;-145.18;100.00;46658.44;5009618;28;20549;-73
2022/07/29 04:32:14;;;;;;;3.43;2.03;;;;;;;-145.18;100.00;46662.34;5010077;28;20108;-73
2022/07/29 04:34:40;;;;;;;9.07;2.73;;;;;;;-145.18;100.00;46660.41;5010137;28;20498;-72
2022/07/29 04:37:05;;;;;;;7.87;2.50;;;;;;;-145.18;100.00;46660.41;4992771;28;20042;-72
2022/07/29 04:39:30;;;;;;;5.07;2.33;;;;;;;-145.18;100.00;46660.41;5010067;28;20066;-72
2022/07/29 04:41:56;;;;;;;4.53;2.07;;;;;;;-145.18;100.00;46660.41;5010173;28;20037;-73
2022/07/29 04:44:21;;;;;;;3.20;2.10;;;;;;;-145.18;100.00;46660.41;5009874;28;20121;-72
2022/07/29 04:46:47;;;;;;;7.20;2.43;;;;;;;-145.18;100.00;46660.41;5007915;28;20575;-72
2022/07/29 04:49:12;;;;;;;6.43;2.43;;;;;;;-145.18;100.00;46664.31;5006035;28;20057;-72
2022/07/29 04:51:38;;;;;;;4.30;2.20;;;;;;;-145.18;100.00;46660.41;5006018;28;20036;-72
2022/07/29 04:54:03;;;;;;;5.70;2.43;;;;;;;-145.18;100.00;46666.25;5009292;28;20034;-72
2022/07/29 04:56:29;;;;;;;4.30;1.83;;;;;;;-145.18;100.00;46672.13;5007411;28;20089;-74
2022/07/29 04:58:54;;;;;;;10.50;2.07;;;;;;;-145.18;100.00;46670.16;5003932;28;20033;-72
2022/07/29 05:01:19;;;;;;;4.93;2.17;;;;;;;-145.18;100.00;46674.06;4998088;28;20031;-73
2022/07/29 05:03:45;;;;;;;2.97;1.90;;;;;;;-145.18;100.00;46666.25;4990155;28;20510;-72
2022/07/29 05:06:11;;;;;;;4.17;2.20;;;;;;;-145.18;100.00;46668.22;4990611;28;20034;-72
2022/07/29 05:08:37;;;;;;;3.47;2.00;;;;;;;-145.18;100.00;46666.25;4990509;28;20498;-72
2022/07/29 05:11:03;;;;;;;4.53;2.70;;;;;;;-145.18;100.00;46664.31;5007196;28;20522;-72
2022/07/29 05:13:29;;;;;;;5.10;1.90;;;;;;;-145.18;100.00;46672.13;5013936;28;20105;-72
2022/07/29 05:15:54;;;;;;;4.47;2.00;;;;;;;-145.18;100.00;46666.25;5013992;28;20042;-72
2022/07/29 05:18:19;;;;;;;7.07;2.20;;;;;;;-145.18;100.00;46666.25;5013526;28;20041;-72
2022/07/29 05:20:45;;;;;;;10.00;2.50;;;;;;;-145.18;100.00;46668.22;5013229;28;20127;-72
2022/07/29 05:23:12;;;;;;;10.93;2.13;;;;;;;-145.18;100.00;46666.25;5006375;28;20041;-73
2022/07/29 05:25:38;;;;;;;5.03;2.10;;;;;;;-145.18;100.00;46668.22;5000919;28;20030;-73
2022/07/29 05:28:03;;;;;;;4.80;2.03;;;;;;;-145.18;100.00;46672.13;5002655;28;20045;-72
2022/07/29 05:30:29;;;;;;;5.10;2.07;;;;;;;-145.18;100.00;46670.16;5012051;28;20402;-72
2022/07/29 05:32:54;;;;;;;9.93;1.90;;;;;;;-145.18;100.00;46670.16;5007008;28;20034;-72
2022/07/29 05:35:20;;;;;;;7.60;2.33;;;;;;;-145.18;100.00;46672.13;5012961;28;20045;-72
2022/07/29 05:37:45;;;;;;;7.20;2.10;;;;;;;-145.18;100.00;46668.22;5012970;28;20422;-72
2022/07/29 05:40:11;;;;;;;6.97;2.53;;;;;;;-145.18;100.00;46670.16;5013571;28;20042;-71
2022/07/29 05:42:36;;;;;;;3.90;2.00;;;;;;;-145.18;100.00;46672.13;5012451;28;20137;-72
2022/07/29 05:45:02;;;;;;;5.50;1.90;;;;;;;-145.18;100.00;46660.41;5013507;28;20037;-74
2022/07/29 05:47:28;;;;;;;4.50;2.20;;;;;;;-145.18;100.00;46668.22;5013049;28;20045;-72
2022/07/29 05:49:53;;;;;;;2.70;1.83;;;;;;;-145.18;100.00;46670.16;5013539;28;20177;-72
2022/07/29 05:52:19;;;;;;;4.07;1.90;;;;;;;-145.18;100.00;46666.25;5013169;28;20137;-74
2022/07/29 05:54:44;;;;;;;4.93;2.10;;;;;;;-145.18;100.00;46666.25;5012944;28;20065;-74
2022/07/29 05:57:22;;;;;;;6.87;1.97;;;;;;;-145.18;100.00;46666.25;5013210;28;20109;-74
2022/07/29 05:59:48;;;;;;;7.57;2.20;;;;;;;-145.18;100.00;46664.31;5012740;28;20021;-73
2022/07/29 06:02:14;;;;;;;6.93;1.93;;;;;;;-145.18;100.00;46662.34;5009435;28;20053;-74
2022/07/29 06:04:39;;;;;;;3.60;2.03;;;;;;;-145.18;100.00;46664.31;5007135;28;20022;-74
2022/07/29 06:07:05;;;;;;;9.10;2.47;;;;;;;-145.18;100.00;46658.44;5010636;28;20048;-73
2022/07/29 06:09:31;;;;;;;6.93;2.20;;;;;;;-145.18;100.00;46658.44;5012298;28;20033;-73
2022/07/29 06:11:58;;;;;;;3.80;2.10;;;;;;;-145.18;100.00;46654.53;5012114;28;20486;-73
2022/07/29 06:14:24;;;;;;;6.50;2.40;;;;;;;-145.18;100.00;46642.81;5012508;28;20026;-73
2022/07/29 06:16:49;;;;;;;5.27;1.77;;;;;;;-145.18;100.00;46621.31;5012164;28;20391;-74
2022/07/29 06:19:14;;;;;;;4.70;1.97;;;;;;;-145.18;100.00;46611.56;5010363;28;20038;-74
2022/07/29 06:21:44;;;;;;;7.27;1.87;;;;;;;-145.18;100.00;46609.59;5012332;28;20030;-74
2022/07/29 06:24:11;;;;;;;5.30;2.20;;;;;;;-145.18;100.00;46629.13;5012374;28;20061;-74
2022/07/29 06:26:37;;;;;;;8.87;2.13;;;;;;;-145.18;100.00;46592.03;5011083;28;20033;-73
2022/07/29 06:29:02;;;;;;;5.37;2.00;;;;;;;-145.18;100.00;46564.69;4994192;28;20022;-74
2022/07/29 06:31:28;;;;;;;3.10;1.73;;;;;;;-145.18;100.00;46560.78;5012448;28;20382;-74
2022/07/29 06:33:53;;;;;;;4.63;1.80;;;;;;;-145.18;100.00;46570.53;5011807;28;20030;-73
2022/07/29 06:36:18;;;;;;;5.00;2.27;;;;;;;-145.18;100.00;46556.88;5012342;28;20057;-73
2022/07/29 06:38:44;;;;;;;7.37;2.03;;;;;;;-145.18;100.00;46558.81;5010648;28;20056;-73
2022/07/29 06:41:12;;;;;;;7.33;2.33;;;;;;;-145.18;100.00;46564.69;5012302;28;20134;-74
2022/07/29 06:43:41;;;;;;;3.53;2.00;;;;;;;-145.18;100.00;46562.72;5012034;28;20040;-74
2022/07/29 06:46:14;;;;;;;3.03;2.10;;;;;;;-145.18;100.00;46558.81;5011913;28;20474;-73
2022/07/29 06:48:41;;;;;;;4.40;1.93;;;;;;;-145.18;100.00;46578.34;5010913;28;20030;-74
2022/07/29 06:51:08;;;;;;;8.40;2.20;;;;;;;-145.18;100.00;46568.59;5011123;28;20095;-74
2022/07/29 06:53:34;;;;;;;6.73;2.43;;;;;;;-145.18;100.00;46566.63;5010871;28;20030;-74
2022/07/29 06:56:01;;;;;;;7.73;2.50;;;;;;;-145.18;100.00;46578.34;5011178;28;20061;-74
2022/07/29 06:58:27;;;;;;;6.17;2.13;;;;;;;-145.18;100.00;46582.25;5009477;28;20111;-74
2022/07/29 07:00:52;;;;;;;9.83;2.67;;;;;;;-145.18;100.00;46568.59;4991671;28;20038;-74
2022/07/29 07:03:18;;;;;;;3.97;2.10;;;;;;;-145.18;100.00;46582.25;4973988;28;20042;-74
2022/07/29 07:05:44;;;;;;;7.63;2.50;;;;;;;-145.18;100.00;46603.75;4991880;28;20081;-73
2022/07/29 07:08:11;;;;;;;6.83;3.00;;;;;;;-145.18;100.00;46609.59;4991829;28;20077;-74
2022/07/29 07:10:36;;;;;;;4.50;2.23;;;;;;;-145.18;100.00;46621.31;4991764;28;20027;-74
2022/07/29 07:13:04;;;;;;;6.37;2.60;;;;;;;-145.18;100.00;46601.78;4991565;28;20113;-74
2022/07/29 07:15:29;;;;;;;4.17;2.27;;;;;;;-145.18;100.00;46609.59;4992007;28;20056;-74
2022/07/29 07:17:55;;;;;;;6.20;2.53;;;;;;;-145.18;100.00;46621.31;4991641;28;20644;-73
2022/07/29 07:20:20;;;;;;;5.50;2.30;;;;;;;-145.18;100.00;46631.09;4974860;28;20034;-74
2022/07/29 07:22:46;;;;;;;7.07;2.40;;;;;;;-145.18;100.00;46636.94;4973837;28;20030;-73
2022/07/29 07:25:12;;;;;;;3.00;2.20;;;;;;;-145.18;100.00;46636.94;4991906;28;20113;-74
2022/07/29 07:27:38;;;;;;;6.20;2.20;;;;;;;-145.18;100.00;46646.72;4991375;28;20030;-74
2022/07/29 07:30:05;;;;;;;4.03;2.00;;;;;;;-145.18;100.00;46638.91;4991412;28;20092;-74
2022/07/29 07:32:31;;;;;;;5.40;2.53;;;;;;;-145.18;100.00;46629.13;4991893;28;20419;-73
2022/07/29 07:34:57;;;;;;;5.17;2.80;;;;;;;-145.18;100.00;46586.16;4999462;28;20034;-74
2022/07/29 07:37:24;;;;;;;25.57;15.40;;;;;;;-145.18;100.00;46590.06;5010556;28;20128;-73
2022/07/29 07:39:50;;;;;;;6.87;3.00;;;;;;;-145.18;100.00;46562.72;4991062;28;20034;-73
2022/07/29 07:42:15;;;;;;;11.90;4.73;;;;;;;-145.18;100.00;46547.09;4977305;28;20102;-74
2022/07/29 07:44:40;;;;;;;5.27;2.33;;;;;;;-145.18;100.00;46529.53;4998461;28;20033;-75
2022/07/29 07:47:06;;;;;;;9.53;3.00;;;;;;;-145.18;100.00;46523.66;5009201;28;20034;-74
2022/07/29 07:49:31;;;;;;;6.10;2.80;;;;;;;-145.18;100.00;46523.66;5004957;28;20096;-73
2022/07/29 07:51:56;;;;;;;6.47;2.67;;;;;;;-145.18;100.00;46525.63;5002025;28;20087;-73
2022/07/29 07:54:22;;;;;;;4.17;2.30;;;;;;;-145.18;100.00;46533.44;4981051;28;20425;-73
2022/07/29 07:56:49;;;;;;;6.07;2.63;;;;;;;-145.18;100.00;46529.53;5000031;28;20037;-73
2022/07/29 07:59:15;;;;;;;11.03;2.30;;;;;;;-145.18;100.00;46539.28;4999049;28;20490;-73
2022/07/29 08:01:40;;;;;;;5.83;2.87;;;;;;;-145.18;100.00;46527.56;5009011;28;20037;-74
2022/07/29 08:04:07;;;;;;;8.37;2.77;;;;;;;-145.18;100.00;46539.28;5010059;28;20058;-74
2022/07/29 08:06:34;;;;;;;8.30;2.40;;;;;;;-145.18;100.00;46539.28;4995415;28;20034;-74
2022/07/29 08:09:00;;;;;;;6.20;3.43;;;;;;;-145.18;100.00;46533.44;4989423;28;20458;-73
2022/07/29 08:11:25;;;;;;;7.27;2.90;;;;;;;-145.18;100.00;46551.00;4990145;28;20026;-73
2022/07/29 08:13:51;;;;;;;5.33;2.67;;;;;;;-145.18;100.00;46531.47;4990283;28;20031;-73
2022/07/29 08:16:17;;;;;;;8.83;3.57;;;;;;;-145.18;100.00;46523.66;4991109;28;20422;-73
2022/07/29 08:18:45;;;;;;;5.40;2.40;;;;;;;-145.18;100.00;46521.72;4990254;28;20038;-74
2022/07/29 08:21:11;;;;;;;6.07;2.90;;;;;;;-145.18;100.00;46525.63;4990409;28;20031;-74
2022/07/29 08:23:45;;;;;;;5.53;2.93;;;;;;;-145.18;100.00;46529.53;4993167;28;20033;-74
2022/07/29 08:26:12;;;;;;;8.03;3.73;;;;;;;-145.18;100.00;46527.56;5009817;28;20073;-74
2022/07/29 08:28:38;;;;;;;10.87;3.87;;;;;;;-145.18;100.00;46521.72;5004044;28;20065;-74
2022/07/29 08:31:04;;;;;;;4.87;2.90;;;;;;;-145.18;100.00;46531.47;5004227;28;20030;-74
2022/07/29 08:33:29;;;;;;;4.67;3.07;;;;;;;-145.18;100.00;46527.56;5006493;28;20042;-74
2022/07/29 08:35:55;;;;;;;7.27;3.10;;;;;;;-145.18;100.00;46539.28;5010093;28;20046;-72
2022/07/29 08:38:20;;;;;;;9.33;2.63;;;;;;;-145.18;100.00;46547.09;5009188;28;20044;-73
2022/07/29 08:40:46;;;;;;;7.00;2.63;;;;;;;-145.18;100.00;46531.47;5008351;28;20070;-73
2022/07/29 08:43:11;;;;;;;7.53;2.80;;;;;;;-145.18;100.00;46560.78;5009630;28;20040;-72
2022/07/29 08:45:45;;;;;;;4.20;2.30;;;;;;;-145.18;100.00;46543.19;5011874;28;20070;-73
2022/07/29 08:48:20;;;;;;;5.53;2.93;;;;;;;-145.18;100.00;46539.28;5013841;28;20133;-73
2022/07/29 08:50:47;;;;;;;5.77;2.77;;;;;;;-145.18;100.00;46543.19;5014683;28;20110;-75
2022/07/29 08:53:14;;;;;;;7.67;2.97;;;;;;;-145.18;100.00;46570.53;5014108;28;20774;-75
2022/07/29 08:55:44;;;;;;;8.67;3.07;;;;;;;-145.18;100.00;46568.59;5014778;28;20109;-74
2022/07/29 08:58:10;;;;;;;3.67;2.50;;;;;;;-145.18;100.00;46560.78;4996411;28;20077;-74
2022/07/29 09:00:40;;;;;;;5.87;2.70;;;;;;;-145.18;100.00;46554.91;5014285;28;20045;-74
2022/07/29 09:03:07;;;;;;;6.60;2.40;;;;;;;-145.18;100.00;46566.63;5013551;28;20054;-74
2022/07/29 09:05:33;;;;;;;6.47;2.97;;;;;;;-145.18;100.00;46592.03;5014549;28;20483;-74
2022/07/29 09:07:59;;;;;;;6.67;2.73;;;;;;;-145.18;100.00;46562.72;5014044;28;20096;-74
2022/07/29 09:10:24;;;;;;;7.10;3.10;;;;;;;-145.18;100.00;46568.59;5013832;28;20061;-74
2022/07/29 09:12:52;;;;;;;5.57;2.50;;;;;;;-145.18;100.00;46556.88;5014073;28;20029;-74
2022/07/29 09:15:17;;;;;;;8.17;2.83;;;;;;;-145.18;100.00;46562.72;5013706;28;20037;-74
2022/07/29 09:17:45;;;;;;;6.37;2.60;;;;;;;-145.18;100.00;46562.72;5013476;28;20042;-74
2022/07/29 09:20:18;;;;;;;5.43;2.83;;;;;;;-145.18;100.00;46590.06;5013591;28;20036;-74
2022/07/29 09:22:48;;;;;;;6.27;2.70;;;;;;;-145.18;100.00;46543.19;5013638;28;20029;-74
2022/07/29 09:25:15;;;;;;;8.07;3.03;;;;;;;-145.18;100.00;46543.19;5013115;28;20104;-74
2022/07/29 09:27:40;;;;;;;4.03;2.50;;;;;;;-145.18;100.00;47139.00;5013176;28;20049;-74
2022/07/29 09:30:10;;;;;;;4.07;2.50;;;;;;;-145.18;100.00;47152.66;5012207;28;20042;-74
2022/07/29 09:32:55;;;;;;;4.97;2.60;;;;;;;-145.18;100.00;47156.56;5012549;28;20038;-74
2022/07/29 09:35:24;;;;;;;8.57;3.00;;;;;;;-145.18;100.00;47158.53;5013428;28;20393;-73
2022/07/29 09:37:49;;;;;;;4.47;2.73;;;;;;;-145.18;100.00;46972.94;4991923;28;20031;-74
2022/07/29 09:40:24;;;;;;;9.33;3.17;;;;;;;-145.18;100.00;47154.63;5012620;28;20079;-73
2022/07/29 09:42:51;;;;;;;4.93;2.85;;;;;;;-145.18;100.00;47156.56;5005761;28;20100;-74
2022/07/29 09:45:30;;;;;;;8.97;3.20;;;;;;;-145.18;100.00;47140.94;5013041;28;20049;-74
2022/07/29 09:48:00;;;;;;;8.33;2.83;;;;;;;-145.18;100.00;47129.22;5012025;28;20064;-74
2022/07/29 09:50:36;;;;;;;6.30;2.50;;;;;;;-145.18;100.00;47060.84;5011786;28;20486;-75
2022/07/29 09:53:01;;;;;;;7.10;3.27;;;;;;;-145.18;100.00;47066.72;5009224;28;20080;-74
2022/07/29 09:55:27;;;;;;;10.83;3.17;;;;;;;-145.18;100.00;47066.72;5006818;28;20478;-74
2022/07/29 09:57:53;;;;;;;6.27;2.90;;;;;;;-145.18;100.00;47078.44;4999209;28;20045;-75
2022/07/29 10:00:22;;;;;;;4.57;2.87;;;;;;;-145.18;100.00;47076.47;4995780;28;20046;-75
2022/07/29 10:02:48;;;;;;;6.93;3.60;;;;;;;-145.18;100.00;47070.63;4991486;28;20529;-74
2022/07/29 10:05:23;;;;;;;7.20;3.53;;;;;;;-145.18;100.00;47074.53;4991502;28;20073;-75
2022/07/29 10:07:52;;;;;;;;;;;;;;;-145.18;100.00;47049.13;5001182;28;20545;-75
2022/07/29 10:10:22;;;;;;;4.90;3.30;;;;;;;-145.18;100.00;47076.47;5011865;28;19920;-74
2022/07/29 10:12:53;;;;;;;9.13;3.10;;;;;;;-145.18;100.00;47055.00;5011383;28;20121;-73
2022/07/29 10:15:19;;;;;;;6.13;3.10;;;;;;;-145.18;100.00;47064.75;4997694;28;20038;-73
2022/07/29 10:17:45;;;;;;;7.27;3.20;;;;;;;-145.18;100.00;47090.16;4992813;28;20039;-76
2022/07/29 10:20:10;;;;;;;4.73;2.90;;;;;;;-145.18;100.00;47074.53;5008676;28;20037;-76
2022/07/29 10:22:37;;;;;;;7.67;3.10;;;;;;;-145.18;100.00;47115.56;4999610;28;20046;-76
2022/07/29 10:25:02;;;;;;;5.53;2.97;;;;;;;-145.18;100.00;47086.25;5011767;28;20076;-76
2022/07/29 10:27:28;;;;;;;8.67;3.17;;;;;;;-145.18;100.00;47088.19;5012337;28;20045;-75
2022/07/29 10:29:54;;;;;;;6.97;3.13;;;;;;;-145.18;100.00;47070.63;5011900;28;20570;-74
2022/07/29 10:32:35;;;;;;;8.57;2.80;;;;;;;-145.18;100.00;47035.44;5011180;28;20061;-74
2022/07/29 10:35:07;;;;;;;7.30;2.90;;;;;;;-145.18;100.00;47039.34;5011447;28;20034;-74
2022/07/29 10:38:11;;;;;;;8.03;3.10;;;;;;;-145.18;100.00;47027.63;5012074;28;20566;-74
2022/07/29 10:43:43;;;;;;;11.07;3.40;;;;;;;-145.18;100.00;47015.91;5001853;28;20045;-74
2022/07/29 10:46:11;;;;;;;8.83;2.50;;;;;;;-145.18;100.00;46998.34;5002245;28;20030;-75
2022/07/29 10:49:06;;;;;;;8.63;3.10;;;;;;;-145.18;100.00;47000.28;4993969;28;20052;-74
2022/07/29 10:52:09;;;;;;;5.83;2.57;;;;;;;-145.18;100.00;47017.88;5011991;28;20038;-74
2022/07/29 10:54:37;;;;;;;7.93;2.70;;;;;;;-145.18;100.00;46998.34;4963061;28;20104;-74
2022/07/29 10:57:15;;;;;;;3.83;2.80;;;;;;;-145.18;100.00;47008.09;5002044;28;20464;-74
2022/07/29 10:59:43;;;;;;;10.00;2.70;;;;;;;-145.18;100.00;47008.09;5003221;28;20030;-74
2022/07/29 11:02:33;;;;;;;6.40;2.10;;;;;;;-145.18;100.00;47000.28;5002183;28;20261;-73
2022/07/29 11:04:58;;;;;;;8.67;3.20;;;;;;;-145.18;100.00;46998.34;5005883;28;20042;-74
2022/07/29 11:07:25;;;;;;;7.03;2.77;;;;;;;-145.18;100.00;46984.66;5009546;28;20045;-74
2022/07/29 11:10:12;;;;;;;4.57;2.23;;;;;;;-145.18;100.00;46980.75;5008142;28;20463;-74
2022/07/29 11:12:37;;;;;;;7.23;2.40;;;;;;;-145.18;100.00;46996.38;4997123;28;20026;-74
2022/07/29 11:15:08;;;;;;;6.03;2.37;;;;;;;-145.18;100.00;46972.94;5010327;28;20442;-74
2022/07/29 11:17:52;;;;;;;5.37;2.23;;;;;;;-145.18;100.00;46971.00;5011265;28;20053;-74